Main page
METAR-TAF:

METAR-TAF

Airports :

Venice Marco Polo Airport

Venice, Italy

latitude: 45-30N, longitude: 012-20E, elevation: 2 m

Current weather observation

The report was made 37 minutes ago, at 04:20 UTC
Wind 4 kt from the West
Temperature 0°C
Humidity 74%
Pressure 1019 hPa
Visibility 10 km or more
no clouds below 1500 m and no cumulonimbus

METAR: LIPZ 160420Z 28004KT CAVOK 00/M04 Q1019 NOSIG

Time: 05:57 (04:57 UTC)

Forecast

The report was made 5 hours and 57 minutes ago, at 23:00 UTC
Forecast valid from 16 at 00 UTC to 17 at 06 UTC
Wind 6 kt from variable directions
Visibility 10 km or more
no clouds below 1500 m and no cumulonimbus
Temporary
from 16 at 06 UTC to 16 at 08 UTC
Visibility: 4500 m
mist

TAF: LIPZ 152300Z 1600/1706 VRB06KT CAVOK TEMPO 1606/1608 4500 BR

Weather observations and forecasts of more than 4000 airports (METAR and TAF reports).

The available stations are represented by yellow and red dots on the map.

Hover mouse over dot to see the name of the station.

Then click to see weather observations and forecasts.

To change the map : click on the green buttons with a black cross to zoom in, on the green button with a dash to zoom out, or on the green arrows for adjacent maps.


METAR-TAF: